sensor_id;sensor_type;location;lat;lon;timestamp;pressure;altitude;pressure_sealevel;temperature;humidity
21011;BME280;10663;42.714;23.274;2023-04-06T00:00:37;94573.16;;;1.63;68.71
21011;BME280;10663;42.714;23.274;2023-04-06T00:02:08;94575.44;;;1.53;68.77
21011;BME280;10663;42.714;23.274;2023-04-06T00:03:39;94574.66;;;1.77;68.43
21011;BME280;10663;42.714;23.274;2023-04-06T00:05:10;94575.19;;;1.61;68.59
21011;BME280;10663;42.714;23.274;2023-04-06T00:06:41;94567.34;;;1.61;68.44
21011;BME280;10663;42.714;23.274;2023-04-06T00:08:12;94558.81;;;1.47;68.56
21011;BME280;10663;42.714;23.274;2023-04-06T00:09:43;94557.34;;;1.58;68.34
21011;BME280;10663;42.714;23.274;2023-04-06T00:11:14;94565.38;;;1.56;68.58
21011;BME280;10663;42.714;23.274;2023-04-06T00:12:45;94557.88;;;1.66;68.64
21011;BME280;10663;42.714;23.274;2023-04-06T00:14:16;94550.44;;;1.70;68.68
21011;BME280;10663;42.714;23.274;2023-04-06T00:15:48;94551.16;;;1.52;68.92
21011;BME280;10663;42.714;23.274;2023-04-06T00:17:18;94556.28;;;1.65;68.68
21011;BME280;10663;42.714;23.274;2023-04-06T00:18:49;94553.09;;;1.63;68.63
21011;BME280;10663;42.714;23.274;2023-04-06T00:20:20;94551.38;;;1.50;69.33
21011;BME280;10663;42.714;23.274;2023-04-06T00:21:51;94544.41;;;1.44;69.21
21011;BME280;10663;42.714;23.274;2023-04-06T00:23:23;94538.88;;;1.59;68.59
21011;BME280;10663;42.714;23.274;2023-04-06T00:24:54;94541.31;;;1.54;69.23
21011;BME280;10663;42.714;23.274;2023-04-06T00:26:24;94552.84;;;1.40;69.34
21011;BME280;10663;42.714;23.274;2023-04-06T00:27:57;94548.75;;;1.50;68.97
21011;BME280;10663;42.714;23.274;2023-04-06T00:29:28;94544.97;;;1.46;69.26
21011;BME280;10663;42.714;23.274;2023-04-06T00:30:59;94535.03;;;1.62;68.22
21011;BME280;10663;42.714;23.274;2023-04-06T00:32:30;94541.88;;;1.56;68.71
21011;BME280;10663;42.714;23.274;2023-04-06T00:34:01;94529.03;;;1.61;68.28
21011;BME280;10663;42.714;23.274;2023-04-06T00:35:32;94539.47;;;1.61;68.75
21011;BME280;10663;42.714;23.274;2023-04-06T00:37:03;94525.34;;;1.69;68.01
21011;BME280;10663;42.714;23.274;2023-04-06T00:38:34;94527.28;;;1.73;68.06
21011;BME280;10663;42.714;23.274;2023-04-06T00:40:05;94529.13;;;1.73;68.27
21011;BME280;10663;42.714;23.274;2023-04-06T00:41:37;94523.72;;;1.68;68.36
21011;BME280;10663;42.714;23.274;2023-04-06T00:43:07;94527.50;;;1.47;69.03
21011;BME280;10663;42.714;23.274;2023-04-06T00:44:41;94526.47;;;1.55;68.88
21011;BME280;10663;42.714;23.274;2023-04-06T00:46:13;94527.81;;;1.64;69.16
21011;BME280;10663;42.714;23.274;2023-04-06T00:47:44;94531.25;;;1.58;69.20
21011;BME280;10663;42.714;23.274;2023-04-06T00:49:15;94524.16;;;1.65;68.68
21011;BME280;10663;42.714;23.274;2023-04-06T00:50:46;94527.69;;;1.77;68.61
21011;BME280;10663;42.714;23.274;2023-04-06T00:52:17;94521.59;;;1.83;68.55
21011;BME280;10663;42.714;23.274;2023-04-06T00:53:51;94519.63;;;1.78;68.63
21011;BME280;10663;42.714;23.274;2023-04-06T00:55:22;94513.28;;;1.68;68.57
21011;BME280;10663;42.714;23.274;2023-04-06T00:56:53;94515.94;;;1.86;68.40
21011;BME280;10663;42.714;23.274;2023-04-06T00:58:24;94508.84;;;1.93;68.41
21011;BME280;10663;42.714;23.274;2023-04-06T01:00:03;94517.75;;;1.85;68.16
21011;BME280;10663;42.714;23.274;2023-04-06T01:01:35;94515.25;;;1.97;67.79
21011;BME280;10663;42.714;23.274;2023-04-06T01:03:13;94515.22;;;1.79;68.43
21011;BME280;10663;42.714;23.274;2023-04-06T01:04:46;94514.22;;;1.98;68.22
21011;BME280;10663;42.714;23.274;2023-04-06T01:06:28;94519.59;;;2.03;67.65
21011;BME280;10663;42.714;23.274;2023-04-06T01:08:03;94518.72;;;1.91;68.39
21011;BME280;10663;42.714;23.274;2023-04-06T01:09:35;94520.75;;;1.89;69.16
21011;BME280;10663;42.714;23.274;2023-04-06T01:11:10;94522.44;;;1.77;69.39
21011;BME280;10663;42.714;23.274;2023-04-06T01:12:41;94515.00;;;1.56;70.30
21011;BME280;10663;42.714;23.274;2023-04-06T01:14:22;94517.97;;;1.84;69.80
21011;BME280;10663;42.714;23.274;2023-04-06T01:15:59;94518.97;;;1.83;69.68
21011;BME280;10663;42.714;23.274;2023-04-06T01:17:59;94505.25;;;1.69;70.58
21011;BME280;10663;42.714;23.274;2023-04-06T01:19:31;94510.16;;;2.02;69.50
21011;BME280;10663;42.714;23.274;2023-04-06T01:21:02;94514.28;;;1.92;70.01
21011;BME280;10663;42.714;23.274;2023-04-06T01:22:33;94518.44;;;1.99;70.49
21011;BME280;10663;42.714;23.274;2023-04-06T01:24:07;94508.88;;;1.68;71.61
21011;BME280;10663;42.714;23.274;2023-04-06T01:26:05;94504.72;;;2.04;70.74
21011;BME280;10663;42.714;23.274;2023-04-06T01:27:36;94513.75;;;2.08;70.18
21011;BME280;10663;42.714;23.274;2023-04-06T01:29:24;94513.66;;;1.96;70.97
21011;BME280;10663;42.714;23.274;2023-04-06T01:30:55;94510.31;;;2.07;70.29
21011;BME280;10663;42.714;23.274;2023-04-06T01:32:44;94502.88;;;1.86;71.66
21011;BME280;10663;42.714;23.274;2023-04-06T01:34:17;94509.44;;;2.13;69.98
21011;BME280;10663;42.714;23.274;2023-04-06T01:35:50;94502.13;;;2.04;70.72
21011;BME280;10663;42.714;23.274;2023-04-06T01:37:24;94504.88;;;1.91;71.76
21011;BME280;10663;42.714;23.274;2023-04-06T01:38:58;94506.13;;;2.06;71.18
21011;BME280;10663;42.714;23.274;2023-04-06T01:40:36;94501.50;;;1.83;71.84
21011;BME280;10663;42.714;23.274;2023-04-06T01:42:07;94502.53;;;2.01;72.26
21011;BME280;10663;42.714;23.274;2023-04-06T01:43:40;94493.34;;;1.98;71.76
21011;BME280;10663;42.714;23.274;2023-04-06T01:45:14;94496.38;;;2.13;70.75
21011;BME280;10663;42.714;23.274;2023-04-06T01:46:45;94502.28;;;2.09;70.73
21011;BME280;10663;42.714;23.274;2023-04-06T01:48:21;94494.00;;;2.12;70.59
21011;BME280;10663;42.714;23.274;2023-04-06T01:49:53;94497.19;;;2.14;70.65
21011;BME280;10663;42.714;23.274;2023-04-06T01:51:24;94492.47;;;2.22;70.75
21011;BME280;10663;42.714;23.274;2023-04-06T01:53:00;94492.19;;;2.31;70.62
21011;BME280;10663;42.714;23.274;2023-04-06T01:54:32;94501.47;;;2.08;71.26
21011;BME280;10663;42.714;23.274;2023-04-06T01:56:06;94493.41;;;2.28;70.62
21011;BME280;10663;42.714;23.274;2023-04-06T01:57:42;94503.91;;;1.85;72.42
21011;BME280;10663;42.714;23.274;2023-04-06T01:59:27;94491.88;;;2.02;72.25
21011;BME280;10663;42.714;23.274;2023-04-06T02:00:58;94488.91;;;1.99;72.50
21011;BME280;10663;42.714;23.274;2023-04-06T02:02:32;94496.97;;;1.97;72.46
21011;BME280;10663;42.714;23.274;2023-04-06T02:04:07;94480.81;;;2.07;72.00
21011;BME280;10663;42.714;23.274;2023-04-06T02:05:38;94485.03;;;1.83;72.86
21011;BME280;10663;42.714;23.274;2023-04-06T02:07:21;94485.72;;;1.97;72.85
21011;BME280;10663;42.714;23.274;2023-04-06T02:08:51;94491.38;;;2.12;71.62
21011;BME280;10663;42.714;23.274;2023-04-06T02:10:23;94489.06;;;2.22;71.68
21011;BME280;10663;42.714;23.274;2023-04-06T02:11:55;94474.63;;;2.19;71.44
21011;BME280;10663;42.714;23.274;2023-04-06T02:13:26;94491.38;;;2.12;71.58
21011;BME280;10663;42.714;23.274;2023-04-06T02:14:58;94483.31;;;1.95;72.12
21011;BME280;10663;42.714;23.274;2023-04-06T02:16:29;94490.00;;;1.91;72.52
21011;BME280;10663;42.714;23.274;2023-04-06T02:18:01;94482.00;;;1.86;72.21
21011;BME280;10663;42.714;23.274;2023-04-06T02:19:32;94485.78;;;1.90;72.63
21011;BME280;10663;42.714;23.274;2023-04-06T02:21:03;94488.31;;;1.78;72.50
21011;BME280;10663;42.714;23.274;2023-04-06T02:22:35;94481.72;;;1.94;71.56
21011;BME280;10663;42.714;23.274;2023-04-06T02:24:06;94489.97;;;1.73;72.31
21011;BME280;10663;42.714;23.274;2023-04-06T02:25:37;94491.13;;;1.77;72.72
21011;BME280;10663;42.714;23.274;2023-04-06T02:27:08;94480.75;;;1.70;73.10
21011;BME280;10663;42.714;23.274;2023-04-06T02:28:39;94487.16;;;1.93;72.73
21011;BME280;10663;42.714;23.274;2023-04-06T02:30:11;94479.25;;;1.81;72.78
21011;BME280;10663;42.714;23.274;2023-04-06T02:31:42;94483.84;;;2.04;71.93
21011;BME280;10663;42.714;23.274;2023-04-06T02:33:13;94472.59;;;2.03;72.16
21011;BME280;10663;42.714;23.274;2023-04-06T02:34:48;94478.09;;;2.13;71.70
21011;BME280;10663;42.714;23.274;2023-04-06T02:36:22;94482.53;;;2.13;71.65
21011;BME280;10663;42.714;23.274;2023-04-06T02:37:53;94496.97;;;1.97;71.97
21011;BME280;10663;42.714;23.274;2023-04-06T02:39:24;94484.50;;;1.99;71.68
21011;BME280;10663;42.714;23.274;2023-04-06T02:40:56;94484.41;;;2.06;72.02
21011;BME280;10663;42.714;23.274;2023-04-06T02:42:29;94488.19;;;2.10;71.60
21011;BME280;10663;42.714;23.274;2023-04-06T02:44:00;94484.81;;;2.09;71.69
21011;BME280;10663;42.714;23.274;2023-04-06T02:45:41;94496.69;;;2.05;71.07
21011;BME280;10663;42.714;23.274;2023-04-06T02:47:14;94482.53;;;2.13;71.39
21011;BME280;10663;42.714;23.274;2023-04-06T02:48:49;94467.53;;;2.27;70.78
21011;BME280;10663;42.714;23.274;2023-04-06T02:50:20;94488.84;;;2.05;70.34
21011;BME280;10663;42.714;23.274;2023-04-06T02:51:59;94480.09;;;2.00;70.51
21011;BME280;10663;42.714;23.274;2023-04-06T02:53:37;94498.06;;;2.08;69.81
21011;BME280;10663;42.714;23.274;2023-04-06T02:55:08;94496.75;;;1.99;69.46
21011;BME280;10663;42.714;23.274;2023-04-06T02:56:39;94484.25;;;2.01;69.29
21011;BME280;10663;42.714;23.274;2023-04-06T02:58:11;94483.03;;;2.21;69.68
21011;BME280;10663;42.714;23.274;2023-04-06T02:59:50;94484.19;;;2.44;67.58
21011;BME280;10663;42.714;23.274;2023-04-06T03:01:30;94488.94;;;2.35;67.79
21011;BME280;10663;42.714;23.274;2023-04-06T03:03:05;94480.09;;;2.00;68.31
21011;BME280;10663;42.714;23.274;2023-04-06T03:04:36;94477.22;;;2.19;68.29
21011;BME280;10663;42.714;23.274;2023-04-06T03:06:09;94478.25;;;2.37;66.70
21011;BME280;10663;42.714;23.274;2023-04-06T03:07:40;94479.19;;;2.24;67.60
21011;BME280;10663;42.714;23.274;2023-04-06T03:09:16;94474.81;;;2.54;66.65
21011;BME280;10663;42.714;23.274;2023-04-06T03:10:48;94485.94;;;2.50;66.39
21011;BME280;10663;42.714;23.274;2023-04-06T03:12:20;94487.97;;;2.48;66.56
21011;BME280;10663;42.714;23.274;2023-04-06T03:14:18;94479.47;;;2.52;66.82
21011;BME280;10663;42.714;23.274;2023-04-06T03:15:53;94479.16;;;2.60;66.60
21011;BME280;10663;42.714;23.274;2023-04-06T03:17:26;94473.72;;;2.62;66.12
21011;BME280;10663;42.714;23.274;2023-04-06T03:18:59;94481.09;;;2.65;67.01
21011;BME280;10663;42.714;23.274;2023-04-06T03:20:30;94478.25;;;2.37;68.87
21011;BME280;10663;42.714;23.274;2023-04-06T03:22:01;94482.38;;;2.44;69.38
21011;BME280;10663;42.714;23.274;2023-04-06T03:23:32;94478.38;;;2.42;69.48
21011;BME280;10663;42.714;23.274;2023-04-06T03:25:05;94481.66;;;2.37;69.86
21011;BME280;10663;42.714;23.274;2023-04-06T03:26:38;94473.75;;;2.44;69.80
21011;BME280;10663;42.714;23.274;2023-04-06T03:28:11;94472.28;;;2.48;70.02
21011;BME280;10663;42.714;23.274;2023-04-06T03:29:51;94477.38;;;2.43;69.70
21011;BME280;10663;42.714;23.274;2023-04-06T03:31:30;94482.00;;;2.41;69.85
21011;BME280;10663;42.714;23.274;2023-04-06T03:33:10;94473.31;;;2.29;70.61
21011;BME280;10663;42.714;23.274;2023-04-06T03:34:51;94475.41;;;2.38;70.18
21011;BME280;10663;42.714;23.274;2023-04-06T03:36:22;94472.78;;;2.38;71.08
21011;BME280;10663;42.714;23.274;2023-04-06T03:37:53;94462.59;;;2.37;70.75
21011;BME280;10663;42.714;23.274;2023-04-06T03:39:24;94466.50;;;2.28;70.21
21011;BME280;10663;42.714;23.274;2023-04-06T03:40:56;94470.84;;;2.34;70.69
21011;BME280;10663;42.714;23.274;2023-04-06T03:42:30;94467.06;;;2.30;71.10
21011;BME280;10663;42.714;23.274;2023-04-06T03:44:06;94473.09;;;2.12;72.52
21011;BME280;10663;42.714;23.274;2023-04-06T03:45:38;94481.44;;;2.20;71.51
21011;BME280;10663;42.714;23.274;2023-04-06T03:47:09;94475.28;;;2.33;71.20
21011;BME280;10663;42.714;23.274;2023-04-06T03:48:40;94467.66;;;2.32;71.79
21011;BME280;10663;42.714;23.274;2023-04-06T03:50:11;94474.69;;;2.13;72.69
21011;BME280;10663;42.714;23.274;2023-04-06T03:51:43;94484.81;;;2.09;73.05
21011;BME280;10663;42.714;23.274;2023-04-06T03:53:14;94473.69;;;2.14;73.36
21011;BME280;10663;42.714;23.274;2023-04-06T03:54:45;94474.69;;;2.13;72.97
21011;BME280;10663;42.714;23.274;2023-04-06T03:56:15;94473.97;;;2.06;73.62
21011;BME280;10663;42.714;23.274;2023-04-06T03:57:46;94462.53;;;2.07;73.51
21011;BME280;10663;42.714;23.274;2023-04-06T03:59:17;94481.16;;;2.10;73.83
21011;BME280;10663;42.714;23.274;2023-04-06T04:00:48;94475.78;;;2.05;73.54
21011;BME280;10663;42.714;23.274;2023-04-06T04:02:22;94473.97;;;2.06;74.77
21011;BME280;10663;42.714;23.274;2023-04-06T04:03:54;94469.84;;;2.16;74.07
21011;BME280;10663;42.714;23.274;2023-04-06T04:05:25;94481.31;;;1.97;74.56
21011;BME280;10663;42.714;23.274;2023-04-06T04:06:57;94478.81;;;2.02;74.69
21011;BME280;10663;42.714;23.274;2023-04-06T04:08:28;94472.47;;;2.16;74.21
21011;BME280;10663;42.714;23.274;2023-04-06T04:09:59;94473.41;;;2.22;74.22
21011;BME280;10663;42.714;23.274;2023-04-06T04:11:30;94462.34;;;2.20;74.41
21011;BME280;10663;42.714;23.274;2023-04-06T04:13:03;94472.81;;;2.20;74.27
21011;BME280;10663;42.714;23.274;2023-04-06T04:14:34;94472.00;;;2.19;73.73
21011;BME280;10663;42.714;23.274;2023-04-06T04:16:06;94467.94;;;2.23;74.65
21011;BME280;10663;42.714;23.274;2023-04-06T04:17:37;94466.06;;;2.12;75.07
21011;BME280;10663;42.714;23.274;2023-04-06T04:19:08;94471.44;;;2.17;74.40
21011;BME280;10663;42.714;23.274;2023-04-06T04:20:38;94472.97;;;2.07;74.28
21011;BME280;10663;42.714;23.274;2023-04-06T04:22:10;94468.97;;;2.04;74.06
21011;BME280;10663;42.714;23.274;2023-04-06T04:23:43;94472.81;;;2.20;73.88
21011;BME280;10663;42.714;23.274;2023-04-06T04:25:14;94469.47;;;2.13;73.74
21011;BME280;10663;42.714;23.274;2023-04-06T04:26:50;94474.47;;;2.14;73.06
21011;BME280;10663;42.714;23.274;2023-04-06T04:28:21;94472.59;;;2.03;72.83
21011;BME280;10663;42.714;23.274;2023-04-06T04:29:53;94474.91;;;2.11;71.91
21011;BME280;10663;42.714;23.274;2023-04-06T04:31:24;94464.91;;;2.08;72.29
21011;BME280;10663;42.714;23.274;2023-04-06T04:33:00;94470.56;;;2.23;71.28
21011;BME280;10663;42.714;23.274;2023-04-06T04:34:32;94479.78;;;2.26;71.07
21011;BME280;10663;42.714;23.274;2023-04-06T04:36:04;94468.38;;;2.39;70.89
21011;BME280;10663;42.714;23.274;2023-04-06T04:37:42;94474.88;;;2.48;70.58
21011;BME280;10663;42.714;23.274;2023-04-06T04:39:13;94475.19;;;2.40;71.14
21011;BME280;10663;42.714;23.274;2023-04-06T04:40:48;94475.28;;;2.33;71.48
21011;BME280;10663;42.714;23.274;2023-04-06T04:42:20;94478.09;;;2.50;70.34
21011;BME280;10663;42.714;23.274;2023-04-06T04:43:55;94479.16;;;2.60;69.35
21011;BME280;10663;42.714;23.274;2023-04-06T04:45:29;94471.22;;;2.67;69.84
21011;BME280;10663;42.714;23.274;2023-04-06T04:47:01;94476.41;;;2.55;68.58
21011;BME280;10663;42.714;23.274;2023-04-06T04:48:43;94468.53;;;2.44;68.75
21011;BME280;10663;42.714;23.274;2023-04-06T04:50:14;94479.56;;;2.46;68.60
21011;BME280;10663;42.714;23.274;2023-04-06T04:51:48;94471.94;;;2.44;68.72
21011;BME280;10663;42.714;23.274;2023-04-06T04:53:28;94474.75;;;2.43;67.97
21011;BME280;10663;42.714;23.274;2023-04-06T04:55:06;94466.50;;;2.46;67.69
21011;BME280;10663;42.714;23.274;2023-04-06T04:56:37;94473.03;;;2.67;67.90
21011;BME280;10663;42.714;23.274;2023-04-06T04:58:28;94471.47;;;2.47;68.14
21011;BME280;10663;42.714;23.274;2023-04-06T05:00:01;94468.44;;;2.50;68.18
21011;BME280;10663;42.714;23.274;2023-04-06T05:01:33;94479.25;;;2.54;67.77
21011;BME280;10663;42.714;23.274;2023-04-06T05:03:06;94482.06;;;2.71;67.28
21011;BME280;10663;42.714;23.274;2023-04-06T05:04:41;94479.00;;;2.55;67.60
21011;BME280;10663;42.714;23.274;2023-04-06T05:06:14;94476.88;;;2.64;67.23
21011;BME280;10663;42.714;23.274;2023-04-06T05:07:46;94480.03;;;2.73;66.93
21011;BME280;10663;42.714;23.274;2023-04-06T05:09:29;94470.25;;;2.50;67.33
21011;BME280;10663;42.714;23.274;2023-04-06T05:11:01;94474.81;;;2.54;67.28
21011;BME280;10663;42.714;23.274;2023-04-06T05:12:36;94468.97;;;2.71;67.38
21011;BME280;10663;42.714;23.274;2023-04-06T05:14:11;94481.25;;;2.70;67.55
21011;BME280;10663;42.714;23.274;2023-04-06T05:15:42;94468.97;;;2.71;67.82
21011;BME280;10663;42.714;23.274;2023-04-06T05:17:25;94465.25;;;2.78;67.38
21011;BME280;10663;42.714;23.274;2023-04-06T05:18:57;94483.50;;;2.67;67.79
21011;BME280;10663;42.714;23.274;2023-04-06T05:20:31;94467.34;;;2.40;68.54
21011;BME280;10663;42.714;23.274;2023-04-06T05:22:02;94488.75;;;2.48;69.03
21011;BME280;10663;42.714;23.274;2023-04-06T05:23:37;94482.09;;;2.34;68.86
21011;BME280;10663;42.714;23.274;2023-04-06T05:25:08;94473.91;;;2.31;69.65
21011;BME280;10663;42.714;23.274;2023-04-06T05:26:40;94465.13;;;2.43;69.31
21011;BME280;10663;42.714;23.274;2023-04-06T05:28:18;94475.34;;;2.45;69.47
21011;BME280;10663;42.714;23.274;2023-04-06T05:29:50;94473.38;;;2.40;69.82
21011;BME280;10663;42.714;23.274;2023-04-06T05:31:22;94472.06;;;2.49;69.44
21011;BME280;10663;42.714;23.274;2023-04-06T05:32:55;94479.13;;;2.31;69.55
21011;BME280;10663;42.714;23.274;2023-04-06T05:34:28;94469.84;;;2.16;70.83
21011;BME280;10663;42.714;23.274;2023-04-06T05:35:59;94463.78;;;2.52;69.87
21011;BME280;10663;42.714;23.274;2023-04-06T05:37:32;94467.66;;;2.32;70.16
21011;BME280;10663;42.714;23.274;2023-04-06T05:39:03;94473.13;;;2.60;69.73
21011;BME280;10663;42.714;23.274;2023-04-06T05:40:55;94463.59;;;2.36;70.13
21011;BME280;10663;42.714;23.274;2023-04-06T05:42:40;94474.06;;;2.66;69.36
21011;BME280;10663;42.714;23.274;2023-04-06T05:44:13;94477.03;;;2.69;69.95
21011;BME280;10663;42.714;23.274;2023-04-06T05:45:47;94472.00;;;2.38;70.23
21011;BME280;10663;42.714;23.274;2023-04-06T05:47:18;94462.41;;;2.50;70.67
21011;BME280;10663;42.714;23.274;2023-04-06T05:48:54;94457.25;;;2.61;69.69
21011;BME280;10663;42.714;23.274;2023-04-06T05:50:29;94468.50;;;2.62;69.57
21011;BME280;10663;42.714;23.274;2023-04-06T05:52:01;94468.34;;;2.57;70.20
21011;BME280;10663;42.714;23.274;2023-04-06T05:53:32;94470.53;;;2.60;70.64
21011;BME280;10663;42.714;23.274;2023-04-06T05:55:05;94464.34;;;2.73;69.54
21011;BME280;10663;42.714;23.274;2023-04-06T05:56:36;94459.00;;;2.79;69.81
21011;BME280;10663;42.714;23.274;2023-04-06T05:58:09;94454.66;;;2.73;70.15
21011;BME280;10663;42.714;23.274;2023-04-06T05:59:40;94457.34;;;2.96;69.36
21011;BME280;10663;42.714;23.274;2023-04-06T06:01:11;94457.47;;;3.01;69.52
21011;BME280;10663;42.714;23.274;2023-04-06T06:02:46;94460.59;;;3.22;68.98
21011;BME280;10663;42.714;23.274;2023-04-06T06:04:22;94462.63;;;3.20;68.49
21011;BME280;10663;42.714;23.274;2023-04-06T06:06:03;94457.28;;;3.15;69.30
21011;BME280;10663;42.714;23.274;2023-04-06T06:07:43;94461.28;;;3.29;68.46
21011;BME280;10663;42.714;23.274;2023-04-06T06:09:15;94447.16;;;3.07;69.26
21011;BME280;10663;42.714;23.274;2023-04-06T06:10:56;94442.00;;;2.88;69.53
21011;BME280;10663;42.714;23.274;2023-04-06T06:12:29;94454.84;;;3.01;68.94
21011;BME280;10663;42.714;23.274;2023-04-06T06:14:00;94451.56;;;2.94;68.79
21011;BME280;10663;42.714;23.274;2023-04-06T06:15:32;94453.91;;;3.26;67.59
21011;BME280;10663;42.714;23.274;2023-04-06T06:17:03;94455.72;;;3.25;67.64
21011;BME280;10663;42.714;23.274;2023-04-06T06:18:34;94451.72;;;3.23;68.30
21011;BME280;10663;42.714;23.274;2023-04-06T06:20:08;94464.22;;;3.21;67.90
21011;BME280;10663;42.714;23.274;2023-04-06T06:21:39;94466.66;;;3.34;67.15
21011;BME280;10663;42.714;23.274;2023-04-06T06:23:11;94444.78;;;3.17;68.13
21011;BME280;10663;42.714;23.274;2023-04-06T06:24:42;94450.94;;;3.22;68.59
21011;BME280;10663;42.714;23.274;2023-04-06T06:26:14;94455.28;;;3.40;67.63
21011;BME280;10663;42.714;23.274;2023-04-06T06:27:45;94461.66;;;3.67;66.78
21011;BME280;10663;42.714;23.274;2023-04-06T06:29:16;94451.28;;;3.37;67.92
21011;BME280;10663;42.714;23.274;2023-04-06T06:30:47;94467.16;;;3.54;67.10
21011;BME280;10663;42.714;23.274;2023-04-06T06:32:23;94460.94;;;3.37;68.13
21011;BME280;10663;42.714;23.274;2023-04-06T06:33:57;94461.19;;;3.35;67.94
21011;BME280;10663;42.714;23.274;2023-04-06T06:35:29;94459.28;;;3.54;66.37
21011;BME280;10663;42.714;23.274;2023-04-06T06:37:00;94443.22;;;3.39;68.48
21011;BME280;10663;42.714;23.274;2023-04-06T06:38:31;94454.97;;;3.60;67.11
21011;BME280;10663;42.714;23.274;2023-04-06T06:40:02;94459.59;;;3.23;68.58
21011;BME280;10663;42.714;23.274;2023-04-06T06:41:36;94463.34;;;3.38;67.55
21011;BME280;10663;42.714;23.274;2023-04-06T06:43:07;94459.81;;;3.33;68.16
21011;BME280;10663;42.714;23.274;2023-04-06T06:44:50;94463.31;;;3.15;68.30
21011;BME280;10663;42.714;23.274;2023-04-06T06:46:21;94467.47;;;3.34;67.58
21011;BME280;10663;42.714;23.274;2023-04-06T06:47:52;94481.00;;;3.43;67.49
21011;BME280;10663;42.714;23.274;2023-04-06T06:49:23;94477.69;;;3.36;67.35
21011;BME280;10663;42.714;23.274;2023-04-06T06:50:54;94461.03;;;3.19;69.04
21011;BME280;10663;42.714;23.274;2023-04-06T06:52:25;94459.97;;;3.61;68.20
21011;BME280;10663;42.714;23.274;2023-04-06T06:53:56;94458.38;;;3.60;67.96
21011;BME280;10663;42.714;23.274;2023-04-06T06:55:27;94461.50;;;4.32;65.15
21011;BME280;10663;42.714;23.274;2023-04-06T06:56:58;94463.59;;;3.95;65.72
21011;BME280;10663;42.714;23.274;2023-04-06T06:58:30;94467.59;;;3.63;66.75
21011;BME280;10663;42.714;23.274;2023-04-06T07:00:02;94455.19;;;3.70;66.94
21011;BME280;10663;42.714;23.274;2023-04-06T07:01:34;94464.28;;;3.79;66.18
21011;BME280;10663;42.714;23.274;2023-04-06T07:03:05;94461.22;;;3.70;65.83
21011;BME280;10663;42.714;23.274;2023-04-06T07:04:37;94461.44;;;3.57;66.58
21011;BME280;10663;42.714;23.274;2023-04-06T07:06:09;94481.03;;;3.66;66.66
21011;BME280;10663;42.714;23.274;2023-04-06T07:07:39;94480.09;;;3.84;66.03
21011;BME280;10663;42.714;23.274;2023-04-06T07:09:10;94468.97;;;3.77;65.92
21011;BME280;10663;42.714;23.274;2023-04-06T07:10:41;94476.00;;;3.65;66.09
21011;BME280;10663;42.714;23.274;2023-04-06T07:12:12;94457.00;;;3.58;66.32
21011;BME280;10663;42.714;23.274;2023-04-06T07:13:43;94470.56;;;3.55;66.76
21011;BME280;10663;42.714;23.274;2023-04-06T07:15:16;94465.66;;;3.70;66.06
21011;BME280;10663;42.714;23.274;2023-04-06T07:16:47;94463.06;;;3.82;64.74
21011;BME280;10663;42.714;23.274;2023-04-06T07:18:20;94460.44;;;3.82;65.34
21011;BME280;10663;42.714;23.274;2023-04-06T07:19:51;94473.84;;;3.85;65.45
21011;BME280;10663;42.714;23.274;2023-04-06T07:21:22;94467.81;;;4.08;65.61
21011;BME280;10663;42.714;23.274;2023-04-06T07:22:53;94469.41;;;4.09;64.88
21011;BME280;10663;42.714;23.274;2023-04-06T07:24:24;94493.31;;;4.01;64.69
21011;BME280;10663;42.714;23.274;2023-04-06T07:25:57;94476.03;;;4.00;65.19
21011;BME280;10663;42.714;23.274;2023-04-06T07:27:28;94495.03;;;3.72;65.93
21011;BME280;10663;42.714;23.274;2023-04-06T07:28:59;94472.94;;;3.56;65.46
21011;BME280;10663;42.714;23.274;2023-04-06T07:30:30;94473.97;;;3.67;65.50
21011;BME280;10663;42.714;23.274;2023-04-06T07:32:02;94509.03;;;3.66;65.14
21011;BME280;10663;42.714;23.274;2023-04-06T07:33:33;94468.59;;;3.73;65.54
21011;BME280;10663;42.714;23.274;2023-04-06T07:35:05;94466.78;;;3.97;65.00
21011;BME280;10663;42.714;23.274;2023-04-06T07:36:36;94464.97;;;3.86;65.51
21011;BME280;10663;42.714;23.274;2023-04-06T07:38:07;94487.97;;;3.84;65.08
21011;BME280;10663;42.714;23.274;2023-04-06T07:39:39;94477.03;;;3.87;64.78
21011;BME280;10663;42.714;23.274;2023-04-06T07:41:11;94478.84;;;4.10;64.42
21011;BME280;10663;42.714;23.274;2023-04-06T07:42:42;94486.81;;;4.03;64.68
21011;BME280;10663;42.714;23.274;2023-04-06T07:44:14;94473.22;;;4.30;63.87
21011;BME280;10663;42.714;23.274;2023-04-06T07:45:46;94475.16;;;4.74;63.04
21011;BME280;10663;42.714;23.274;2023-04-06T07:47:20;94466.97;;;4.71;62.04
21011;BME280;10663;42.714;23.274;2023-04-06T07:48:51;94472.84;;;4.49;62.90
21011;BME280;10663;42.714;23.274;2023-04-06T07:50:22;94465.72;;;4.22;63.95
21011;BME280;10663;42.714;23.274;2023-04-06T07:51:54;94459.66;;;4.44;63.10
21011;BME280;10663;42.714;23.274;2023-04-06T07:53:25;94459.38;;;4.58;63.08
21011;BME280;10663;42.714;23.274;2023-04-06T07:54:56;94449.69;;;4.58;63.40
21011;BME280;10663;42.714;23.274;2023-04-06T07:56:27;94461.53;;;4.89;61.88
21011;BME280;10663;42.714;23.274;2023-04-06T07:57:58;94465.38;;;4.70;61.65
21011;BME280;10663;42.714;23.274;2023-04-06T07:59:29;94471.38;;;4.54;61.51
21011;BME280;10663;42.714;23.274;2023-04-06T08:01:01;94482.50;;;4.61;61.22
21011;BME280;10663;42.714;23.274;2023-04-06T08:02:32;94494.31;;;4.75;60.87
21011;BME280;10663;42.714;23.274;2023-04-06T08:04:03;94464.09;;;4.44;61.51
21011;BME280;10663;42.714;23.274;2023-04-06T08:05:34;94487.22;;;4.87;61.30
21011;BME280;10663;42.714;23.274;2023-04-06T08:07:05;94464.66;;;4.74;61.58
21011;BME280;10663;42.714;23.274;2023-04-06T08:08:36;94461.88;;;4.64;60.92
21011;BME280;10663;42.714;23.274;2023-04-06T08:10:07;94452.84;;;5.00;60.26
21011;BME280;10663;42.714;23.274;2023-04-06T08:11:38;94466.88;;;4.94;59.79
21011;BME280;10663;42.714;23.274;2023-04-06T08:13:09;94465.53;;;4.92;59.17